createdAt,value
2019-04-30T00:00:59.663Z,5.40
2019-04-30T00:03:35.245Z,5.40
2019-04-30T00:06:07.226Z,5.40
2019-04-30T00:08:39.136Z,5.30
2019-04-30T00:11:10.885Z,5.30
2019-04-30T00:13:39.064Z,5.30
2019-04-30T00:16:08.775Z,5.30
2019-04-30T00:18:39.737Z,5.20
2019-04-30T00:21:14.156Z,5.20
2019-04-30T00:23:41.385Z,5.30
2019-04-30T00:26:11.249Z,5.30
2019-04-30T00:28:46.240Z,5.20
2019-04-30T00:31:17.609Z,5.20
2019-04-30T00:33:44.952Z,5.10
2019-04-30T00:36:17.199Z,5.10
2019-04-30T00:38:46.364Z,5.10
2019-04-30T00:41:16.881Z,5.10
2019-04-30T00:43:49.817Z,5.00
2019-04-30T00:46:25.460Z,5.00
2019-04-30T00:48:49.611Z,4.90
2019-04-30T00:51:21.447Z,4.90
2019-04-30T00:53:52.337Z,4.90
2019-04-30T00:56:24.607Z,4.90
2019-04-30T00:58:55.425Z,4.80
2019-04-30T01:01:52.815Z,4.80
2019-04-30T01:04:29.061Z,4.80
2019-04-30T01:07:00.221Z,4.80
2019-04-30T01:09:30.540Z,4.70
2019-04-30T01:12:00.270Z,4.70
2019-04-30T01:14:31.944Z,4.70
2019-04-30T01:17:03.916Z,4.70
2019-04-30T01:19:33.431Z,4.60
2019-04-30T01:22:03.205Z,4.60
2019-04-30T01:24:33.739Z,4.60
2019-04-30T01:27:06.788Z,4.50
2019-04-30T01:29:40.761Z,4.40
2019-04-30T01:32:10.527Z,4.40
2019-04-30T01:34:39.530Z,4.40
2019-04-30T01:37:09.349Z,4.40
2019-04-30T01:39:39.203Z,4.40
2019-04-30T01:42:11.336Z,4.30
2019-04-30T01:44:43.455Z,4.30
2019-04-30T01:47:11.776Z,4.30
2019-04-30T01:49:44.413Z,4.30
2019-04-30T01:52:12.907Z,4.30
2019-04-30T01:54:42.648Z,4.30
2019-04-30T01:57:23.492Z,4.30
2019-04-30T02:00:06.405Z,4.30
2019-04-30T02:02:39.453Z,4.20
2019-04-30T02:05:09.319Z,4.20
2019-04-30T02:07:40.370Z,4.20
2019-04-30T02:10:18.574Z,4.10
2019-04-30T02:12:51.478Z,4.10
2019-04-30T02:15:26.428Z,4.10
2019-04-30T02:17:58.759Z,4.10
2019-04-30T02:20:30.895Z,4.10
2019-04-30T02:23:04.593Z,4.10
2019-04-30T02:25:39.904Z,4.00
2019-04-30T02:28:12.070Z,4.00
2019-04-30T02:30:50.069Z,4.00
2019-04-30T02:33:21.211Z,4.00
2019-04-30T02:36:10.325Z,4.00
2019-04-30T02:38:44.108Z,4.00
2019-04-30T02:41:14.279Z,4.00
2019-04-30T02:43:44.573Z,4.00
2019-04-30T02:46:16.031Z,3.90
2019-04-30T02:48:50.056Z,3.90
2019-04-30T02:51:22.852Z,3.90
2019-04-30T02:54:23.636Z,3.90
2019-04-30T02:56:55.993Z,3.90
2019-04-30T02:59:25.648Z,3.90
2019-04-30T03:01:55.437Z,3.90
2019-04-30T03:04:25.193Z,3.90
2019-04-30T03:06:54.838Z,3.90
2019-04-30T03:09:24.508Z,3.90
2019-04-30T03:11:54.154Z,3.80
2019-04-30T03:14:23.779Z,3.80
2019-04-30T03:17:10.511Z,3.70
2019-04-30T03:19:46.025Z,3.70
2019-04-30T03:22:20.331Z,3.70
2019-04-30T03:24:50.352Z,3.70
2019-04-30T03:27:21.024Z,3.60
2019-04-30T03:29:51.827Z,3.70
2019-04-30T03:32:22.662Z,3.70
2019-04-30T03:34:52.499Z,3.70
2019-04-30T03:37:22.279Z,3.60
2019-04-30T03:39:52.191Z,3.60
2019-04-30T03:42:21.829Z,3.60
2019-04-30T03:44:51.446Z,3.60
2019-04-30T03:47:21.130Z,3.60
2019-04-30T03:49:50.857Z,3.60
2019-04-30T03:52:20.533Z,3.60
2019-04-30T03:54:50.403Z,3.60
2019-04-30T03:57:20.608Z,3.70
2019-04-30T03:59:50.670Z,3.70
2019-04-30T04:02:59.760Z,3.70
2019-04-30T04:05:50.088Z,4.00
2019-04-30T04:08:45.288Z,4.50
2019-04-30T04:11:24.132Z,4.90
2019-04-30T04:13:53.499Z,5.30
2019-04-30T04:16:22.913Z,5.50
2019-04-30T04:18:52.276Z,5.70
2019-04-30T04:21:21.634Z,6.00
2019-04-30T04:23:51.909Z,6.00
2019-04-30T04:26:21.271Z,6.10
2019-04-30T04:28:50.650Z,6.10
2019-04-30T04:31:20.342Z,6.40
2019-04-30T04:33:52.581Z,6.50
2019-04-30T04:36:20.762Z,6.40
2019-04-30T04:38:50.855Z,6.60
2019-04-30T04:41:20.330Z,6.90
2019-04-30T04:43:50.345Z,6.90
2019-04-30T04:46:20.536Z,6.90
2019-04-30T04:48:50.070Z,7.00
2019-04-30T04:51:31.312Z,7.10
2019-04-30T04:53:50.502Z,7.30
2019-04-30T04:56:19.861Z,7.20
2019-04-30T04:58:50.248Z,7.00
2019-04-30T05:01:20.524Z,7.20
2019-04-30T05:03:49.906Z,7.50
2019-04-30T05:06:21.897Z,7.60
2019-04-30T05:08:51.478Z,7.80
2019-04-30T05:11:20.898Z,7.80
2019-04-30T05:13:50.401Z,7.90
2019-04-30T05:16:19.771Z,7.90
2019-04-30T05:18:49.150Z,7.90
2019-04-30T05:21:18.889Z,7.60
2019-04-30T05:23:49.209Z,7.00
2019-04-30T05:26:19.182Z,6.70
2019-04-30T05:28:51.120Z,6.40
2019-04-30T05:31:21.075Z,6.20
2019-04-30T05:33:50.573Z,6.20
2019-04-30T05:36:20.076Z,6.20
2019-04-30T05:38:49.448Z,6.30
2019-04-30T05:41:19.283Z,6.30
2019-04-30T05:43:48.979Z,6.40
2019-04-30T05:46:19.632Z,6.50
2019-04-30T05:48:49.593Z,6.70
2019-04-30T05:51:21.172Z,6.80
2019-04-30T05:53:50.044Z,6.80
2019-04-30T05:56:19.484Z,6.90
2019-04-30T05:58:49.434Z,6.90
2019-04-30T06:01:19.637Z,7.00
2019-04-30T06:03:49.342Z,7.10
2019-04-30T06:06:19.359Z,7.30
2019-04-30T06:09:18.758Z,7.30
2019-04-30T06:12:12.672Z,7.40
2019-04-30T06:14:49.178Z,7.60
2019-04-30T06:17:20.006Z,7.70
2019-04-30T06:19:51.461Z,7.80
2019-04-30T06:22:20.834Z,7.90
2019-04-30T06:24:50.205Z,8.00
2019-04-30T06:27:19.938Z,8.10
2019-04-30T06:29:49.513Z,8.20
2019-04-30T06:32:18.964Z,8.50
2019-04-30T06:34:49.884Z,8.40
2019-04-30T06:37:19.707Z,8.50
2019-04-30T06:39:50.106Z,8.70
2019-04-30T06:42:19.647Z,8.70
2019-04-30T06:44:49.527Z,8.80
2019-04-30T06:47:31.982Z,8.70
2019-04-30T06:49:50.134Z,8.90
2019-04-30T06:52:23.011Z,9.00
2019-04-30T06:54:50.758Z,9.00
2019-04-30T06:57:20.128Z,9.20
2019-04-30T06:59:51.575Z,9.30
2019-04-30T07:02:21.082Z,9.50
2019-04-30T07:04:50.420Z,9.60
2019-04-30T07:07:23.024Z,9.60
2019-04-30T07:10:16.779Z,9.80
2019-04-30T07:13:10.226Z,9.90
2019-04-30T07:15:39.698Z,9.90
2019-04-30T07:18:09.151Z,10.10
2019-04-30T07:20:38.797Z,10.00
2019-04-30T07:23:09.348Z,10.10
2019-04-30T07:25:39.166Z,10.20
2019-04-30T07:28:09.051Z,10.10
2019-04-30T07:30:39.620Z,10.30
2019-04-30T07:33:09.536Z,10.40
2019-04-30T07:35:39.951Z,10.50
2019-04-30T07:38:09.499Z,10.50
2019-04-30T07:40:39.109Z,10.60
2019-04-30T07:43:09.072Z,10.80
2019-04-30T07:45:39.763Z,10.90
2019-04-30T07:48:09.455Z,10.90
2019-04-30T07:50:40.958Z,11.10
2019-04-30T07:53:11.584Z,11.30
2019-04-30T07:55:40.944Z,11.20
2019-04-30T07:58:10.332Z,11.30
2019-04-30T08:00:40.345Z,11.30
2019-04-30T08:03:41.201Z,11.50
2019-04-30T08:06:10.980Z,11.50
2019-04-30T08:08:40.925Z,11.60
2019-04-30T08:11:23.147Z,11.70
2019-04-30T08:13:42.318Z,11.70
2019-04-30T08:16:12.095Z,11.70
2019-04-30T08:18:41.605Z,11.80
2019-04-30T08:21:10.968Z,12.10
2019-04-30T08:23:40.360Z,12.30
2019-04-30T08:26:09.862Z,12.50
2019-04-30T08:28:39.247Z,12.50
2019-04-30T08:31:09.068Z,12.50
2019-04-30T08:33:40.250Z,12.60
2019-04-30T08:36:09.725Z,12.60
2019-04-30T08:38:39.527Z,12.80
2019-04-30T08:41:09.441Z,13.00
2019-04-30T08:43:39.426Z,12.90
2019-04-30T08:46:09.421Z,13.00
2019-04-30T08:48:49.956Z,13.10
2019-04-30T08:51:13.130Z,13.30
2019-04-30T08:53:41.382Z,13.30
2019-04-30T08:56:10.719Z,13.40
2019-04-30T08:58:40.072Z,13.60
2019-04-30T09:01:09.862Z,13.60
2019-04-30T09:03:39.358Z,13.50
2019-04-30T09:06:13.325Z,13.70
2019-04-30T09:08:44.057Z,13.70
2019-04-30T09:11:22.387Z,13.70
2019-04-30T09:13:44.581Z,13.90
2019-04-30T09:16:13.939Z,13.90
2019-04-30T09:18:43.334Z,14.00
2019-04-30T09:21:12.710Z,14.20
2019-04-30T09:23:49.367Z,14.20
2019-04-30T09:26:13.216Z,14.30
2019-04-30T09:28:42.580Z,14.40
2019-04-30T09:31:12.006Z,14.40
2019-04-30T09:33:41.361Z,14.40
2019-04-30T09:36:10.760Z,14.40
2019-04-30T09:38:40.171Z,14.70
2019-04-30T09:41:09.568Z,14.70
2019-04-30T09:43:40.510Z,14.80
2019-04-30T09:46:22.111Z,14.80
2019-04-30T09:48:41.017Z,14.90
2019-04-30T09:51:11.152Z,14.90
2019-04-30T09:53:40.943Z,14.90
2019-04-30T09:56:10.471Z,15.00
2019-04-30T09:58:39.914Z,15.10
2019-04-30T10:01:09.509Z,15.30
2019-04-30T10:03:39.688Z,15.40
2019-04-30T10:06:09.414Z,15.60
2019-04-30T10:08:47.932Z,15.60
2019-04-30T10:11:16.458Z,15.50
2019-04-30T10:13:45.839Z,15.40
2019-04-30T10:16:34.170Z,15.40
2019-04-30T10:19:03.530Z,15.50
2019-04-30T10:21:33.023Z,15.30
2019-04-30T10:24:12.333Z,15.30
2019-04-30T10:26:33.414Z,15.50
2019-04-30T10:29:03.604Z,15.70
2019-04-30T10:31:32.994Z,15.90
2019-04-30T10:34:02.420Z,15.80
2019-04-30T10:36:31.779Z,15.80
2019-04-30T10:39:01.181Z,15.70
2019-04-30T10:41:30.876Z,15.70
2019-04-30T10:44:00.303Z,15.80
2019-04-30T10:46:29.846Z,15.90
2019-04-30T10:48:59.257Z,15.90
2019-04-30T10:51:28.869Z,16.10
2019-04-30T10:53:59.159Z,16.40
2019-04-30T10:56:29.160Z,16.50
2019-04-30T10:58:58.564Z,16.60
2019-04-30T11:01:29.195Z,16.60
2019-04-30T11:03:58.643Z,16.70
2019-04-30T11:06:28.040Z,16.70
2019-04-30T11:08:57.373Z,16.70
2019-04-30T11:11:28.273Z,16.70
2019-04-30T11:13:57.758Z,16.70
2019-04-30T11:16:27.115Z,16.90
2019-04-30T11:18:56.650Z,16.90
2019-04-30T11:21:26.066Z,17.10
2019-04-30T11:23:55.792Z,17.20
2019-04-30T11:26:25.718Z,17.30
2019-04-30T11:28:55.490Z,17.20
2019-04-30T11:31:49.940Z,17.20
2019-04-30T11:34:19.416Z,17.20
2019-04-30T11:36:48.847Z,17.40
2019-04-30T11:39:21.607Z,17.50
2019-04-30T11:41:50.992Z,17.20
2019-04-30T11:44:35.992Z,17.10
2019-04-30T11:47:27.026Z,17.40
2019-04-30T11:49:56.452Z,17.30
2019-04-30T11:52:26.052Z,17.30
2019-04-30T11:54:55.457Z,17.50
2019-04-30T11:57:24.937Z,17.60
2019-04-30T11:59:54.338Z,17.60
2019-04-30T12:02:52.626Z,17.70
2019-04-30T12:05:20.794Z,17.80
2019-04-30T12:08:09.528Z,17.60
2019-04-30T12:10:52.046Z,17.60
2019-04-30T12:13:25.496Z,17.70
2019-04-30T12:15:55.264Z,17.60
2019-04-30T12:18:24.720Z,17.80
2019-04-30T12:20:54.153Z,17.80
2019-04-30T12:23:23.536Z,17.80
2019-04-30T12:25:53.083Z,18.00
2019-04-30T12:28:22.489Z,18.00
2019-04-30T12:30:51.861Z,17.90
2019-04-30T12:33:21.184Z,17.90
2019-04-30T12:35:51.338Z,17.60
2019-04-30T12:38:20.802Z,17.50
2019-04-30T12:40:50.164Z,17.70
2019-04-30T12:43:19.523Z,18.00
2019-04-30T12:46:01.988Z,18.30
2019-04-30T12:48:25.608Z,18.30
2019-04-30T12:51:12.025Z,18.30
2019-04-30T12:53:57.076Z,18.30
2019-04-30T12:56:37.671Z,18.50
2019-04-30T12:59:07.029Z,18.70
2019-04-30T13:01:36.409Z,18.90
2019-04-30T13:04:05.883Z,18.90
2019-04-30T13:06:35.716Z,18.90
2019-04-30T13:09:10.835Z,18.90
2019-04-30T13:11:41.173Z,18.60
2019-04-30T13:14:11.616Z,18.60
2019-04-30T13:16:41.432Z,18.60
2019-04-30T13:19:10.804Z,18.50
2019-04-30T13:21:40.252Z,18.50
2019-04-30T13:24:09.685Z,18.50
2019-04-30T13:26:39.651Z,18.70
2019-04-30T13:29:14.476Z,19.00
2019-04-30T13:31:43.818Z,19.20
2019-04-30T13:34:30.657Z,19.10
2019-04-30T13:36:59.966Z,19.30
2019-04-30T13:39:34.577Z,19.10
2019-04-30T13:42:22.869Z,19.10
2019-04-30T13:44:52.239Z,19.20
2019-04-30T13:47:21.595Z,19.30
2019-04-30T13:49:51.065Z,19.50
2019-04-30T13:52:20.438Z,19.80
2019-04-30T13:54:49.784Z,20.10
2019-04-30T13:57:19.155Z,20.00
2019-04-30T13:59:50.841Z,19.90
2019-04-30T14:02:19.544Z,19.60
2019-04-30T14:04:55.715Z,19.40
2019-04-30T14:07:42.711Z,19.10
2019-04-30T14:10:12.259Z,18.90
2019-04-30T14:12:47.184Z,18.90
2019-04-30T14:15:16.865Z,18.80
2019-04-30T14:17:46.292Z,18.70
2019-04-30T14:20:15.661Z,18.60
2019-04-30T14:22:44.988Z,18.50
2019-04-30T14:25:14.666Z,18.30
2019-04-30T14:27:52.162Z,18.30
2019-04-30T14:30:15.455Z,18.20
2019-04-30T14:32:44.808Z,18.30
2019-04-30T14:35:14.289Z,18.40
2019-04-30T14:37:43.629Z,18.30
2019-04-30T14:40:14.199Z,18.10
2019-04-30T14:42:59.870Z,18.20
2019-04-30T14:45:36.395Z,18.30
2019-04-30T14:48:12.317Z,18.40
2019-04-30T14:50:42.042Z,18.60
2019-04-30T14:53:20.472Z,18.60
2019-04-30T14:56:14.808Z,18.60
2019-04-30T14:59:03.133Z,18.40
2019-04-30T15:01:45.833Z,18.30
2019-04-30T15:04:15.237Z,18.10
2019-04-30T15:06:44.576Z,18.00
2019-04-30T15:09:13.969Z,18.00
2019-04-30T15:11:43.424Z,18.00
2019-04-30T15:14:12.793Z,18.20
2019-04-30T15:16:42.168Z,18.10
2019-04-30T15:19:11.650Z,18.20
2019-04-30T15:21:41.014Z,18.40
2019-04-30T15:24:29.221Z,18.50
2019-04-30T15:26:58.696Z,18.50
2019-04-30T15:29:29.111Z,18.30
2019-04-30T15:31:59.238Z,18.20
2019-04-30T15:34:29.377Z,18.30
2019-04-30T15:36:59.232Z,18.20
2019-04-30T15:39:34.735Z,18.00
2019-04-30T15:42:04.304Z,17.80
2019-04-30T15:44:40.028Z,17.70
2019-04-30T15:47:05.597Z,17.70
2019-04-30T15:49:35.153Z,17.60
2019-04-30T15:52:04.928Z,17.70
2019-04-30T15:54:34.271Z,17.70
2019-04-30T15:57:03.629Z,17.80
2019-04-30T15:59:51.992Z,18.00
2019-04-30T16:02:53.604Z,18.00
2019-04-30T16:05:30.781Z,17.90
2019-04-30T16:08:18.983Z,17.90
2019-04-30T16:11:10.341Z,17.90
2019-04-30T16:14:12.422Z,17.90
2019-04-30T16:16:44.331Z,17.90
2019-04-30T16:19:13.685Z,17.90
2019-04-30T16:21:43.028Z,17.80
2019-04-30T16:24:12.476Z,17.80
2019-04-30T16:26:49.611Z,18.00
2019-04-30T16:29:12.808Z,18.70
2019-04-30T16:31:42.140Z,19.70
2019-04-30T16:34:11.472Z,20.70
2019-04-30T16:36:40.840Z,21.40
2019-04-30T16:39:10.589Z,21.90
2019-04-30T16:41:40.784Z,21.90
2019-04-30T16:44:10.277Z,22.20
2019-04-30T16:46:39.621Z,22.90
2019-04-30T16:49:10.207Z,23.20
2019-04-30T16:51:40.011Z,23.00
2019-04-30T16:54:09.343Z,22.80
2019-04-30T16:56:38.841Z,22.70
2019-04-30T16:59:10.156Z,22.50
2019-04-30T17:01:39.489Z,22.20
2019-04-30T17:04:16.492Z,22.20
2019-04-30T17:06:50.643Z,22.10
2019-04-30T17:09:26.604Z,21.80
2019-04-30T17:12:04.267Z,21.40
2019-04-30T17:14:34.442Z,20.80
2019-04-30T17:17:03.777Z,20.40
2019-04-30T17:19:33.133Z,20.30
2019-04-30T17:22:02.481Z,19.90
2019-04-30T17:24:31.864Z,19.20
2019-04-30T17:27:01.206Z,18.60
2019-04-30T17:29:30.924Z,18.10
2019-04-30T17:32:00.256Z,17.70
2019-04-30T17:34:30.921Z,17.40
2019-04-30T17:37:00.260Z,17.20
2019-04-30T17:39:29.592Z,17.10
2019-04-30T17:41:58.924Z,16.90
2019-04-30T17:44:28.922Z,16.80
2019-04-30T17:46:59.994Z,16.70
2019-04-30T17:49:29.509Z,16.60
2019-04-30T17:51:59.240Z,16.40
2019-04-30T17:54:28.614Z,16.30
2019-04-30T17:56:57.976Z,16.20
2019-04-30T17:59:27.307Z,16.10
2019-04-30T18:02:00.560Z,15.90
2019-04-30T18:04:30.102Z,15.80
2019-04-30T18:06:59.644Z,15.70
2019-04-30T18:09:29.288Z,15.70
2019-04-30T18:11:59.575Z,15.60
2019-04-30T18:14:28.978Z,15.50
2019-04-30T18:16:59.447Z,15.40
2019-04-30T18:20:05.801Z,15.30
2019-04-30T18:22:52.381Z,15.10
2019-04-30T18:25:39.112Z,15.00
2019-04-30T18:28:09.147Z,14.80
2019-04-30T18:30:39.253Z,14.70
2019-04-30T18:33:09.857Z,14.70
2019-04-30T18:35:39.361Z,14.60
2019-04-30T18:38:09.751Z,14.60
2019-04-30T18:40:39.834Z,14.40
2019-04-30T18:43:09.279Z,14.30
2019-04-30T18:45:39.611Z,14.10
2019-04-30T18:48:09.726Z,14.00
2019-04-30T18:50:39.159Z,13.90
2019-04-30T18:53:14.791Z,13.80
2019-04-30T18:55:44.130Z,13.60
2019-04-30T18:58:13.514Z,13.60
2019-04-30T19:00:45.275Z,13.40
2019-04-30T19:03:14.626Z,13.30
2019-04-30T19:05:49.133Z,13.20
2019-04-30T19:08:35.772Z,13.10
2019-04-30T19:11:39.685Z,13.10
2019-04-30T19:14:26.511Z,13.10
2019-04-30T19:17:13.192Z,13.00
2019-04-30T19:19:49.678Z,12.90
2019-04-30T19:22:19.022Z,12.80
2019-04-30T19:24:56.181Z,12.70
2019-04-30T19:27:19.476Z,12.60
2019-04-30T19:29:49.111Z,12.50
2019-04-30T19:32:19.808Z,12.40
2019-04-30T19:34:49.183Z,12.40
2019-04-30T19:37:19.685Z,12.40
2019-04-30T19:39:51.088Z,12.30
2019-04-30T19:42:20.004Z,12.10
2019-04-30T19:44:57.190Z,11.90
2019-04-30T19:47:20.366Z,11.80
2019-04-30T19:49:49.752Z,11.60
2019-04-30T19:52:19.386Z,11.50
2019-04-30T19:54:48.889Z,11.50
2019-04-30T19:57:19.103Z,11.40
2019-04-30T19:59:49.162Z,11.30
2019-04-30T20:02:19.110Z,11.30
2019-04-30T20:04:49.642Z,11.20
2019-04-30T20:07:19.545Z,11.20
2019-04-30T20:10:00.591Z,11.10
2019-04-30T20:12:20.061Z,11.10
2019-04-30T20:14:49.651Z,11.10
2019-04-30T20:17:19.465Z,11.10
2019-04-30T20:19:49.049Z,11.00
2019-04-30T20:22:19.644Z,11.00
2019-04-30T20:24:49.263Z,11.00
2019-04-30T20:27:19.005Z,11.00
2019-04-30T20:29:51.458Z,11.00
2019-04-30T20:32:27.486Z,11.00
2019-04-30T20:34:50.525Z,11.10
2019-04-30T20:37:19.996Z,11.10
2019-04-30T20:39:54.251Z,11.20
2019-04-30T20:42:23.625Z,11.30
2019-04-30T20:44:52.976Z,11.40
2019-04-30T20:47:22.373Z,11.60
2019-04-30T20:49:51.734Z,11.70
2019-04-30T20:52:21.084Z,11.80
2019-04-30T20:54:50.432Z,11.80
2019-04-30T20:57:20.042Z,11.90
2019-04-30T20:59:49.406Z,12.00
2019-04-30T21:02:20.447Z,12.10
2019-04-30T21:04:49.907Z,12.10
2019-04-30T21:07:19.548Z,12.10
2019-04-30T21:09:48.952Z,12.10
2019-04-30T21:12:18.731Z,12.10
2019-04-30T21:14:48.584Z,12.20
2019-04-30T21:17:18.003Z,12.20
2019-04-30T21:19:47.353Z,12.20
2019-04-30T21:22:16.722Z,12.30
2019-04-30T21:24:46.081Z,12.30
2019-04-30T21:27:15.581Z,12.40
2019-04-30T21:29:45.799Z,12.40
2019-04-30T21:32:24.424Z,12.30
2019-04-30T21:35:00.642Z,12.30
2019-04-30T21:37:30.003Z,12.30
2019-04-30T21:39:59.369Z,12.30
2019-04-30T21:42:28.978Z,12.30
2019-04-30T21:44:58.343Z,12.30
2019-04-30T21:47:27.677Z,12.30
2019-04-30T21:49:57.016Z,12.30
2019-04-30T21:52:27.209Z,12.20
2019-04-30T21:54:56.699Z,12.20
2019-04-30T21:57:26.041Z,12.20
2019-04-30T21:59:55.371Z,12.20
2019-04-30T22:05:00.101Z,12.20
2019-04-30T22:07:29.547Z,12.20
2019-04-30T22:09:58.931Z,12.20
2019-04-30T22:12:28.422Z,12.20
2019-04-30T22:14:59.283Z,12.20
2019-04-30T22:17:29.268Z,12.20
2019-04-30T22:19:59.614Z,12.20
2019-04-30T22:22:29.237Z,12.20
2019-04-30T22:24:59.702Z,12.20
2019-04-30T22:27:29.305Z,12.20
2019-04-30T22:29:58.650Z,12.30
2019-04-30T22:32:28.012Z,12.30
2019-04-30T22:35:09.828Z,12.40
2019-04-30T22:37:39.214Z,12.40
2019-04-30T22:40:09.337Z,12.40
2019-04-30T22:42:39.951Z,12.40
2019-04-30T22:45:28.152Z,12.40
2019-04-30T22:47:58.887Z,12.50
2019-04-30T22:50:28.424Z,12.50
2019-04-30T22:52:57.834Z,12.40
2019-04-30T22:55:27.299Z,12.40
2019-04-30T22:57:56.696Z,12.30
2019-04-30T23:00:45.341Z,12.30
2019-04-30T23:03:19.233Z,12.40
2019-04-30T23:05:48.593Z,12.50
2019-04-30T23:08:17.999Z,12.60
2019-04-30T23:10:47.394Z,12.60
2019-04-30T23:13:16.729Z,12.60
2019-04-30T23:15:46.124Z,12.60
2019-04-30T23:18:15.644Z,12.50
2019-04-30T23:20:44.993Z,12.50
2019-04-30T23:23:14.389Z,12.50
2019-04-30T23:25:43.777Z,12.50
2019-04-30T23:28:13.155Z,12.50
2019-04-30T23:30:42.655Z,12.50
2019-04-30T23:33:12.093Z,12.40
2019-04-30T23:35:41.481Z,12.40
2019-04-30T23:38:10.983Z,12.20
2019-04-30T23:40:50.557Z,12.20
2019-04-30T23:43:20.640Z,12.10
2019-04-30T23:45:50.004Z,12.00
2019-04-30T23:48:19.414Z,11.90
2019-04-30T23:50:48.770Z,11.70
2019-04-30T23:53:18.222Z,11.70
2019-04-30T23:55:47.680Z,11.70
2019-04-30T23:58:17.108Z,11.70
